sensor_id;sensor_type;location;lat;lon;timestamp;pressure;altitude;pressure_sealevel;temperature;humidity
65376;BME280;51976;47.332;9.404;2023-10-13T00:01:22;93086.91;;;13.57;56.44
65376;BME280;51976;47.332;9.404;2023-10-13T00:03:47;93083.81;;;13.44;56.04
65376;BME280;51976;47.332;9.404;2023-10-13T00:06:12;93086.94;;;13.38;56.24
65376;BME280;51976;47.332;9.404;2023-10-13T00:08:38;93089.25;;;13.44;55.96
65376;BME280;51976;47.332;9.404;2023-10-13T00:11:05;93097.53;;;13.53;55.85
65376;BME280;51976;47.332;9.404;2023-10-13T00:13:30;93090.34;;;13.43;56.34
65376;BME280;51976;47.332;9.404;2023-10-13T00:16:17;93084.06;;;13.29;57.33
65376;BME280;51976;47.332;9.404;2023-10-13T00:18:43;93086.81;;;13.43;56.62
65376;BME280;51976;47.332;9.404;2023-10-13T00:21:10;93084.56;;;13.50;56.44
65376;BME280;51976;47.332;9.404;2023-10-13T00:23:39;93090.13;;;13.59;56.41
65376;BME280;51976;47.332;9.404;2023-10-13T00:26:17;93091.44;;;13.42;56.76
65376;BME280;51976;47.332;9.404;2023-10-13T00:28:43;93080.19;;;13.35;57.07
65376;BME280;51976;47.332;9.404;2023-10-13T00:31:12;93084.06;;;13.29;57.36
65376;BME280;51976;47.332;9.404;2023-10-13T00:33:39;93074.78;;;13.35;57.05
65376;BME280;51976;47.332;9.404;2023-10-13T00:36:07;93072.66;;;13.32;57.04
65376;BME280;51976;47.332;9.404;2023-10-13T00:38:34;93076.00;;;13.24;57.28
65376;BME280;51976;47.332;9.404;2023-10-13T00:41:00;93067.09;;;13.24;57.26
65376;BME280;51976;47.332;9.404;2023-10-13T00:43:45;93067.00;;;13.29;56.87
65376;BME280;51976;47.332;9.404;2023-10-13T00:46:11;93068.63;;;13.30;56.77
65376;BME280;51976;47.332;9.404;2023-10-13T00:48:41;93065.03;;;13.34;56.79
65376;BME280;51976;47.332;9.404;2023-10-13T00:51:09;93058.66;;;13.25;56.73
65376;BME280;51976;47.332;9.404;2023-10-13T00:53:47;93056.47;;;13.27;56.25
65376;BME280;51976;47.332;9.404;2023-10-13T00:56:14;93072.19;;;13.06;56.49
65376;BME280;51976;47.332;9.404;2023-10-13T00:58:47;93068.78;;;13.14;56.82
65376;BME280;51976;47.332;9.404;2023-10-13T01:01:17;93059.38;;;13.12;57.22
65376;BME280;51976;47.332;9.404;2023-10-13T01:03:45;93064.44;;;13.18;56.91
65376;BME280;51976;47.332;9.404;2023-10-13T01:06:11;93056.91;;;13.15;57.02
65376;BME280;51976;47.332;9.404;2023-10-13T01:08:37;93062.81;;;12.99;57.32
65376;BME280;51976;47.332;9.404;2023-10-13T01:11:04;93063.59;;;12.99;57.50
65376;BME280;51976;47.332;9.404;2023-10-13T01:13:32;93048.75;;;12.97;57.27
65376;BME280;51976;47.332;9.404;2023-10-13T01:16:01;93047.66;;;12.98;57.23
65376;BME280;51976;47.332;9.404;2023-10-13T01:18:26;93051.41;;;13.02;56.83
65376;BME280;51976;47.332;9.404;2023-10-13T01:20:54;93051.03;;;13.08;56.76
65376;BME280;51976;47.332;9.404;2023-10-13T01:23:25;93053.06;;;12.79;56.86
65376;BME280;51976;47.332;9.404;2023-10-13T01:25:54;93050.69;;;12.72;57.26
65376;BME280;51976;47.332;9.404;2023-10-13T01:28:19;93049.19;;;12.85;57.12
65376;BME280;51976;47.332;9.404;2023-10-13T01:30:47;93050.25;;;12.65;57.77
65376;BME280;51976;47.332;9.404;2023-10-13T01:33:19;93047.38;;;12.80;57.70
65376;BME280;51976;47.332;9.404;2023-10-13T01:35:55;93051.69;;;12.81;57.29
65376;BME280;51976;47.332;9.404;2023-10-13T01:38:22;93039.03;;;12.77;57.59
65376;BME280;51976;47.332;9.404;2023-10-13T01:40:47;93040.75;;;12.68;57.86
65376;BME280;51976;47.332;9.404;2023-10-13T01:43:16;93039.97;;;12.43;58.71
65376;BME280;51976;47.332;9.404;2023-10-13T01:45:43;93037.38;;;12.33;58.78
65376;BME280;51976;47.332;9.404;2023-10-13T01:48:15;93029.88;;;12.30;59.01
65376;BME280;51976;47.332;9.404;2023-10-13T01:50:43;93033.69;;;12.48;58.40
65376;BME280;51976;47.332;9.404;2023-10-13T01:53:20;93039.13;;;12.67;57.68
65376;BME280;51976;47.332;9.404;2023-10-13T01:55:45;93033.66;;;12.72;57.68
65376;BME280;51976;47.332;9.404;2023-10-13T01:58:12;93030.66;;;12.54;58.24
65376;BME280;51976;47.332;9.404;2023-10-13T02:00:45;93040.97;;;12.52;58.28
65376;BME280;51976;47.332;9.404;2023-10-13T02:03:13;93026.34;;;12.53;58.15
65376;BME280;51976;47.332;9.404;2023-10-13T02:05:42;93037.00;;;12.64;57.86
65376;BME280;51976;47.332;9.404;2023-10-13T02:08:17;93036.31;;;12.77;57.29
65376;BME280;51976;47.332;9.404;2023-10-13T02:10:48;93042.19;;;12.84;56.84
65376;BME280;51976;47.332;9.404;2023-10-13T02:13:14;93037.34;;;12.81;56.99
65376;BME280;51976;47.332;9.404;2023-10-13T02:15:46;93032.06;;;12.71;56.48
65376;BME280;51976;47.332;9.404;2023-10-13T02:18:17;93030.50;;;12.65;57.18
65376;BME280;51976;47.332;9.404;2023-10-13T02:20:49;93026.19;;;12.64;57.32
65376;BME280;51976;47.332;9.404;2023-10-13T02:23:21;93023.44;;;12.69;57.67
65376;BME280;51976;47.332;9.404;2023-10-13T02:25:47;93028.47;;;12.57;58.03
65376;BME280;51976;47.332;9.404;2023-10-13T02:28:12;93018.50;;;12.52;58.02
65376;BME280;51976;47.332;9.404;2023-10-13T02:30:46;93019.25;;;12.58;57.57
65376;BME280;51976;47.332;9.404;2023-10-13T02:33:16;93017.94;;;12.55;57.56
65376;BME280;51976;47.332;9.404;2023-10-13T02:35:49;93010.47;;;12.47;57.79
65376;BME280;51976;47.332;9.404;2023-10-13T02:38:21;93003.38;;;12.51;57.81
65376;BME280;51976;47.332;9.404;2023-10-13T02:40:58;92991.50;;;12.28;57.65
65376;BME280;51976;47.332;9.404;2023-10-13T02:43:31;93009.53;;;12.33;57.76
65376;BME280;51976;47.332;9.404;2023-10-13T02:45:58;93013.69;;;12.49;57.21
65376;BME280;51976;47.332;9.404;2023-10-13T02:48:26;92996.19;;;12.41;57.37
65376;BME280;51976;47.332;9.404;2023-10-13T02:50:57;93007.25;;;12.45;56.75
65376;BME280;51976;47.332;9.404;2023-10-13T02:53:28;93015.94;;;12.61;56.15
65376;BME280;51976;47.332;9.404;2023-10-13T02:55:54;93008.84;;;12.46;56.83
65376;BME280;51976;47.332;9.404;2023-10-13T02:58:31;93006.22;;;12.17;57.15
65376;BME280;51976;47.332;9.404;2023-10-13T03:01:09;93001.13;;;12.34;56.83
65376;BME280;51976;47.332;9.404;2023-10-13T03:03:45;93005.41;;;12.40;56.62
65376;BME280;51976;47.332;9.404;2023-10-13T03:06:16;93006.16;;;12.46;56.55
65376;BME280;51976;47.332;9.404;2023-10-13T03:08:43;93006.66;;;12.48;56.37
65376;BME280;51976;47.332;9.404;2023-10-13T03:11:09;93002.63;;;12.45;56.23
65376;BME280;51976;47.332;9.404;2023-10-13T03:13:35;93010.28;;;12.38;56.67
65376;BME280;51976;47.332;9.404;2023-10-13T03:16:10;93000.47;;;12.24;57.02
65376;BME280;51976;47.332;9.404;2023-10-13T03:18:36;93001.84;;;12.21;57.10
65376;BME280;51976;47.332;9.404;2023-10-13T03:21:01;93012.47;;;12.12;57.43
65376;BME280;51976;47.332;9.404;2023-10-13T03:23:27;93009.16;;;12.20;57.42
65376;BME280;51976;47.332;9.404;2023-10-13T03:25:53;93013.25;;;12.18;57.71
65376;BME280;51976;47.332;9.404;2023-10-13T03:28:21;93012.44;;;12.17;58.33
65376;BME280;51976;47.332;9.404;2023-10-13T03:30:50;93007.13;;;12.07;58.38
65376;BME280;51976;47.332;9.404;2023-10-13T03:33:18;93010.06;;;12.11;58.35
65376;BME280;51976;47.332;9.404;2023-10-13T03:35:52;93001.97;;;12.11;58.28
65376;BME280;51976;47.332;9.404;2023-10-13T03:38:19;93005.53;;;12.06;58.13
65376;BME280;51976;47.332;9.404;2023-10-13T03:40:47;93001.38;;;12.14;57.79
65376;BME280;51976;47.332;9.404;2023-10-13T03:43:21;93004.94;;;12.09;57.77
65376;BME280;51976;47.332;9.404;2023-10-13T03:45:48;92993.91;;;12.06;57.49
65376;BME280;51976;47.332;9.404;2023-10-13T03:48:19;93001.50;;;12.04;57.18
65376;BME280;51976;47.332;9.404;2023-10-13T03:50:55;93001.63;;;12.17;56.96
65376;BME280;51976;47.332;9.404;2023-10-13T03:53:33;93000.75;;;12.22;56.88
65376;BME280;51976;47.332;9.404;2023-10-13T03:56:02;92993.28;;;12.14;56.98
65376;BME280;51976;47.332;9.404;2023-10-13T03:58:35;92997.53;;;12.20;57.01
65376;BME280;51976;47.332;9.404;2023-10-13T04:01:01;92996.56;;;12.11;56.90
65376;BME280;51976;47.332;9.404;2023-10-13T04:03:28;92990.63;;;12.09;57.08
65376;BME280;51976;47.332;9.404;2023-10-13T04:05:58;92993.09;;;12.05;57.07
65376;BME280;51976;47.332;9.404;2023-10-13T04:08:31;92996.56;;;12.11;56.90
65376;BME280;51976;47.332;9.404;2023-10-13T04:11:13;92990.81;;;12.17;56.83
65376;BME280;51976;47.332;9.404;2023-10-13T04:13:58;92996.72;;;12.19;56.67
65376;BME280;51976;47.332;9.404;2023-10-13T04:16:44;92988.88;;;12.23;56.64
65376;BME280;51976;47.332;9.404;2023-10-13T04:19:19;92989.19;;;12.16;56.36
65376;BME280;51976;47.332;9.404;2023-10-13T04:21:48;92984.38;;;12.13;56.61
65376;BME280;51976;47.332;9.404;2023-10-13T04:24:23;92984.94;;;12.10;56.67
65376;BME280;51976;47.332;9.404;2023-10-13T04:27:05;92975.00;;;12.06;56.70
65376;BME280;51976;47.332;9.404;2023-10-13T04:29:50;92968.88;;;12.00;56.53
65376;BME280;51976;47.332;9.404;2023-10-13T04:32:35;92962.88;;;12.03;55.93
65376;BME280;51976;47.332;9.404;2023-10-13T04:35:04;92961.44;;;12.11;55.88
65376;BME280;51976;47.332;9.404;2023-10-13T04:37:44;92950.03;;;12.14;55.94
65376;BME280;51976;47.332;9.404;2023-10-13T04:40:26;92952.50;;;12.10;56.16
65376;BME280;51976;47.332;9.404;2023-10-13T04:43:00;92949.94;;;12.00;56.24
65376;BME280;51976;47.332;9.404;2023-10-13T04:45:30;92951.84;;;12.00;56.37
65376;BME280;51976;47.332;9.404;2023-10-13T04:48:15;92941.75;;;12.05;56.28
65376;BME280;51976;47.332;9.404;2023-10-13T04:50:59;92945.63;;;11.99;56.41
65376;BME280;51976;47.332;9.404;2023-10-13T04:53:45;92947.59;;;11.94;56.41
65376;BME280;51976;47.332;9.404;2023-10-13T04:56:30;92924.47;;;11.82;56.71
65376;BME280;51976;47.332;9.404;2023-10-13T04:59:15;92938.44;;;11.90;56.83
65376;BME280;51976;47.332;9.404;2023-10-13T05:02:01;92933.84;;;11.90;56.98
65376;BME280;51976;47.332;9.404;2023-10-13T05:04:46;92930.44;;;11.79;57.60
65376;BME280;51976;47.332;9.404;2023-10-13T05:07:32;92933.28;;;11.64;58.24
65376;BME280;51976;47.332;9.404;2023-10-13T05:10:18;92940.63;;;11.59;58.15
65376;BME280;51976;47.332;9.404;2023-10-13T05:13:03;92931.44;;;11.60;58.29
65376;BME280;51976;47.332;9.404;2023-10-13T05:15:50;92937.69;;;11.55;58.25
65376;BME280;51976;47.332;9.404;2023-10-13T05:18:36;92937.66;;;11.60;58.21
65376;BME280;51976;47.332;9.404;2023-10-13T05:21:21;92941.59;;;11.73;57.92
65376;BME280;51976;47.332;9.404;2023-10-13T05:24:07;92942.25;;;11.60;57.97
65376;BME280;51976;47.332;9.404;2023-10-13T05:26:53;92954.03;;;11.45;58.65
65376;BME280;51976;47.332;9.404;2023-10-13T05:29:40;92951.59;;;11.14;59.42
65376;BME280;51976;47.332;9.404;2023-10-13T05:32:25;92950.31;;;11.02;58.91
65376;BME280;51976;47.332;9.404;2023-10-13T05:35:11;92970.72;;;11.18;58.65
65376;BME280;51976;47.332;9.404;2023-10-13T05:37:57;92967.56;;;11.06;58.49
65376;BME280;51976;47.332;9.404;2023-10-13T05:41:02;92954.03;;;11.11;58.39
65376;BME280;51976;47.332;9.404;2023-10-13T05:43:48;92954.69;;;11.27;57.69
65376;BME280;51976;47.332;9.404;2023-10-13T05:46:33;92959.78;;;11.33;56.73
65376;BME280;51976;47.332;9.404;2023-10-13T05:49:19;92956.06;;;11.53;56.73
65376;BME280;51976;47.332;9.404;2023-10-13T05:52:04;92952.44;;;11.68;56.36
65376;BME280;51976;47.332;9.404;2023-10-13T05:54:44;92964.47;;;11.80;56.32
65376;BME280;51976;47.332;9.404;2023-10-13T05:57:29;92959.59;;;11.82;56.19
65376;BME280;51976;47.332;9.404;2023-10-13T06:00:15;92947.78;;;11.73;56.61
65376;BME280;51976;47.332;9.404;2023-10-13T06:03:00;92965.78;;;11.83;55.93
65376;BME280;51976;47.332;9.404;2023-10-13T06:05:47;92956.31;;;11.85;55.54
65376;BME280;51976;47.332;9.404;2023-10-13T06:08:32;92969.69;;;11.72;56.45
65376;BME280;51976;47.332;9.404;2023-10-13T06:11:17;92969.25;;;11.60;56.70
65376;BME280;51976;47.332;9.404;2023-10-13T06:14:03;92954.84;;;11.69;56.46
65376;BME280;51976;47.332;9.404;2023-10-13T06:16:48;92962.28;;;11.82;56.10
65376;BME280;51976;47.332;9.404;2023-10-13T06:19:33;92956.84;;;11.88;56.17
65376;BME280;51976;47.332;9.404;2023-10-13T06:22:19;92959.53;;;11.88;55.81
65376;BME280;51976;47.332;9.404;2023-10-13T06:25:04;92967.59;;;11.93;55.59
65376;BME280;51976;47.332;9.404;2023-10-13T06:27:50;92967.97;;;11.81;56.44
65376;BME280;51976;47.332;9.404;2023-10-13T06:30:35;92966.56;;;11.89;56.38
65376;BME280;51976;47.332;9.404;2023-10-13T06:33:00;92970.72;;;11.76;56.69
65376;BME280;51976;47.332;9.404;2023-10-13T06:35:29;92958.50;;;11.83;56.74
65376;BME280;51976;47.332;9.404;2023-10-13T06:37:56;92960.88;;;11.90;57.22
65376;BME280;51976;47.332;9.404;2023-10-13T06:40:25;92958.78;;;12.06;57.08
65376;BME280;51976;47.332;9.404;2023-10-13T06:42:52;92972.19;;;12.16;56.60
65376;BME280;51976;47.332;9.404;2023-10-13T06:45:19;92949.41;;;12.22;56.37
65376;BME280;51976;47.332;9.404;2023-10-13T06:47:46;92963.31;;;12.10;56.58
65376;BME280;51976;47.332;9.404;2023-10-13T06:50:13;92963.59;;;12.09;55.41
65376;BME280;51976;47.332;9.404;2023-10-13T06:52:44;92961.69;;;12.33;54.75
65376;BME280;51976;47.332;9.404;2023-10-13T06:55:10;92964.94;;;12.54;54.53
65376;BME280;51976;47.332;9.404;2023-10-13T06:57:42;92964.16;;;12.53;55.25
65376;BME280;51976;47.332;9.404;2023-10-13T07:00:10;92968.69;;;12.58;55.48
65376;BME280;51976;47.332;9.404;2023-10-13T07:02:44;92965.25;;;12.71;55.56
65376;BME280;51976;47.332;9.404;2023-10-13T07:05:12;92963.34;;;12.72;55.91
65376;BME280;51976;47.332;9.404;2023-10-13T07:07:39;92961.59;;;12.81;55.31
65376;BME280;51976;47.332;9.404;2023-10-13T07:10:09;92960.84;;;12.94;55.41
65376;BME280;51976;47.332;9.404;2023-10-13T07:12:34;92962.31;;;13.05;54.88
65376;BME280;51976;47.332;9.404;2023-10-13T07:15:00;92961.22;;;13.25;54.81
65376;BME280;51976;47.332;9.404;2023-10-13T07:17:45;92953.03;;;13.44;54.43
65376;BME280;51976;47.332;9.404;2023-10-13T07:20:12;92964.53;;;13.68;53.80
65376;BME280;51976;47.332;9.404;2023-10-13T07:22:42;92961.97;;;13.91;53.07
65376;BME280;51976;47.332;9.404;2023-10-13T07:25:20;92962.91;;;14.13;52.34
65376;BME280;51976;47.332;9.404;2023-10-13T07:27:49;92957.34;;;14.32;52.10
65376;BME280;51976;47.332;9.404;2023-10-13T07:30:14;92962.38;;;14.52;51.45
65376;BME280;51976;47.332;9.404;2023-10-13T07:32:45;92951.03;;;14.64;50.82
65376;BME280;51976;47.332;9.404;2023-10-13T07:35:17;92953.69;;;14.78;50.80
65376;BME280;51976;47.332;9.404;2023-10-13T07:37:46;92956.59;;;14.95;50.83
65376;BME280;51976;47.332;9.404;2023-10-13T07:40:17;92957.09;;;14.97;50.64
65376;BME280;51976;47.332;9.404;2023-10-13T07:43:03;92959.63;;;15.16;50.86
65376;BME280;51976;47.332;9.404;2023-10-13T07:45:36;92964.47;;;15.41;50.05
65376;BME280;51976;47.332;9.404;2023-10-13T07:48:03;92963.97;;;15.62;48.40
65376;BME280;51976;47.332;9.404;2023-10-13T07:50:42;92952.31;;;15.83;48.12
65376;BME280;51976;47.332;9.404;2023-10-13T07:53:07;92955.97;;;15.87;47.07
65376;BME280;51976;47.332;9.404;2023-10-13T07:55:46;92958.25;;;15.94;46.51
65376;BME280;51976;47.332;9.404;2023-10-13T07:58:21;92950.47;;;16.01;46.08
65376;BME280;51976;47.332;9.404;2023-10-13T08:00:50;92956.84;;;15.97;46.67
65376;BME280;51976;47.332;9.404;2023-10-13T08:03:20;92951.63;;;16.17;46.66
65376;BME280;51976;47.332;9.404;2023-10-13T08:06:05;92950.78;;;16.39;46.43
65376;BME280;51976;47.332;9.404;2023-10-13T08:08:48;92950.50;;;16.58;46.45
65376;BME280;51976;47.332;9.404;2023-10-13T08:11:18;92949.63;;;16.80;45.97
65376;BME280;51976;47.332;9.404;2023-10-13T08:13:54;92949.81;;;16.92;45.76
65376;BME280;51976;47.332;9.404;2023-10-13T08:16:21;92947.25;;;17.04;45.65
65376;BME280;51976;47.332;9.404;2023-10-13T08:18:49;92946.16;;;17.22;45.40
65376;BME280;51976;47.332;9.404;2023-10-13T08:21:18;92946.94;;;17.14;44.96
65376;BME280;51976;47.332;9.404;2023-10-13T08:23:49;92942.28;;;17.23;44.51
65376;BME280;51976;47.332;9.404;2023-10-13T08:26:28;92947.75;;;17.41;44.71
65376;BME280;51976;47.332;9.404;2023-10-13T08:29:13;92935.03;;;17.62;43.14
65376;BME280;51976;47.332;9.404;2023-10-13T08:31:59;92942.09;;;17.80;43.29
65376;BME280;51976;47.332;9.404;2023-10-13T08:34:47;92930.69;;;17.87;41.97
65376;BME280;51976;47.332;9.404;2023-10-13T08:37:33;92929.81;;;18.12;41.69
65376;BME280;51976;47.332;9.404;2023-10-13T08:40:02;92927.63;;;17.97;41.79
65376;BME280;51976;47.332;9.404;2023-10-13T08:42:45;92930.75;;;18.16;42.07
65376;BME280;51976;47.332;9.404;2023-10-13T08:45:31;92929.03;;;18.41;41.68
65376;BME280;51976;47.332;9.404;2023-10-13T08:48:20;92929.00;;;18.50;42.07
65376;BME280;51976;47.332;9.404;2023-10-13T08:50:52;92933.13;;;18.65;42.23
65376;BME280;51976;47.332;9.404;2023-10-13T08:53:25;92932.72;;;18.45;42.63
65376;BME280;51976;47.332;9.404;2023-10-13T08:56:02;92926.72;;;18.60;42.68
65376;BME280;51976;47.332;9.404;2023-10-13T08:58:33;92920.25;;;18.74;42.64
65376;BME280;51976;47.332;9.404;2023-10-13T09:01:24;92922.25;;;18.85;42.19
65376;BME280;51976;47.332;9.404;2023-10-13T09:04:11;92917.94;;;19.05;41.66
65376;BME280;51976;47.332;9.404;2023-10-13T09:06:50;92910.13;;;19.16;41.99
65376;BME280;51976;47.332;9.404;2023-10-13T09:09:46;92909.13;;;19.20;41.99
65376;BME280;51976;47.332;9.404;2023-10-13T09:12:29;92914.34;;;19.34;41.22
65376;BME280;51976;47.332;9.404;2023-10-13T09:15:09;92909.88;;;19.50;40.51
65376;BME280;51976;47.332;9.404;2023-10-13T09:17:46;92907.97;;;19.42;41.54
65376;BME280;51976;47.332;9.404;2023-10-13T09:20:17;92907.44;;;19.49;41.50
65376;BME280;51976;47.332;9.404;2023-10-13T09:22:58;92913.81;;;19.62;40.62
65376;BME280;51976;47.332;9.404;2023-10-13T09:25:39;92907.19;;;19.96;40.03
65376;BME280;51976;47.332;9.404;2023-10-13T09:28:19;92908.38;;;20.31;39.59
65376;BME280;51976;47.332;9.404;2023-10-13T09:30:46;92898.84;;;20.49;38.83
65376;BME280;51976;47.332;9.404;2023-10-13T09:33:11;92904.16;;;20.34;39.24
65376;BME280;51976;47.332;9.404;2023-10-13T09:35:46;92892.22;;;20.50;39.55
65376;BME280;51976;47.332;9.404;2023-10-13T09:38:15;92882.00;;;20.26;40.39
65376;BME280;51976;47.332;9.404;2023-10-13T09:40:42;92892.22;;;20.38;40.38
65376;BME280;51976;47.332;9.404;2023-10-13T09:43:16;92874.19;;;20.49;41.14
65376;BME280;51976;47.332;9.404;2023-10-13T09:45:44;92881.81;;;20.56;41.92
65376;BME280;51976;47.332;9.404;2023-10-13T09:48:37;92883.50;;;20.85;41.85
65376;BME280;51976;47.332;9.404;2023-10-13T09:51:12;92872.50;;;21.09;41.29
65376;BME280;51976;47.332;9.404;2023-10-13T09:53:39;92877.81;;;20.90;40.94
65376;BME280;51976;47.332;9.404;2023-10-13T09:56:12;92872.50;;;21.21;40.30
65376;BME280;51976;47.332;9.404;2023-10-13T09:58:53;92863.75;;;21.44;40.12
65376;BME280;51976;47.332;9.404;2023-10-13T10:01:28;92864.75;;;21.51;39.04
65376;BME280;51976;47.332;9.404;2023-10-13T10:04:11;92861.56;;;21.49;38.80
65376;BME280;51976;47.332;9.404;2023-10-13T10:06:54;92862.81;;;21.52;37.48
65376;BME280;51976;47.332;9.404;2023-10-13T10:09:26;92865.09;;;21.50;36.92
65376;BME280;51976;47.332;9.404;2023-10-13T10:12:13;92849.88;;;21.80;35.65
65376;BME280;51976;47.332;9.404;2023-10-13T10:15:12;92855.69;;;22.07;34.01
65376;BME280;51976;47.332;9.404;2023-10-13T10:17:53;92848.13;;;22.19;34.42
65376;BME280;51976;47.332;9.404;2023-10-13T10:20:36;92840.44;;;22.09;33.26
65376;BME280;51976;47.332;9.404;2023-10-13T10:23:08;92842.22;;;22.02;33.69
65376;BME280;51976;47.332;9.404;2023-10-13T10:25:47;92836.22;;;22.12;34.30
65376;BME280;51976;47.332;9.404;2023-10-13T10:28:13;92830.75;;;22.00;33.79
65376;BME280;51976;47.332;9.404;2023-10-13T10:30:41;92834.59;;;22.11;33.46
65376;BME280;51976;47.332;9.404;2023-10-13T10:33:08;92830.78;;;22.31;32.82
65376;BME280;51976;47.332;9.404;2023-10-13T10:35:39;92829.72;;;22.36;29.94
65376;BME280;51976;47.332;9.404;2023-10-13T10:38:14;92830.75;;;22.62;30.43
65376;BME280;51976;47.332;9.404;2023-10-13T10:41:04;92823.75;;;22.65;31.33
65376;BME280;51976;47.332;9.404;2023-10-13T10:43:36;92816.75;;;22.68;31.25
65376;BME280;51976;47.332;9.404;2023-10-13T10:46:26;92816.22;;;22.78;31.36
65376;BME280;51976;47.332;9.404;2023-10-13T10:48:52;92802.78;;;22.92;30.65
65376;BME280;51976;47.332;9.404;2023-10-13T10:51:26;92804.25;;;23.05;30.94
65376;BME280;51976;47.332;9.404;2023-10-13T10:53:57;92805.28;;;23.16;31.06
65376;BME280;51976;47.332;9.404;2023-10-13T10:56:24;92802.59;;;23.20;32.16
65376;BME280;51976;47.332;9.404;2023-10-13T10:59:06;92802.66;;;23.43;31.06
65376;BME280;51976;47.332;9.404;2023-10-13T11:01:44;92795.44;;;23.15;30.62
65376;BME280;51976;47.332;9.404;2023-10-13T11:04:13;92795.94;;;23.21;31.00
65376;BME280;51976;47.332;9.404;2023-10-13T11:06:47;92787.03;;;23.47;30.72
65376;BME280;51976;47.332;9.404;2023-10-13T11:09:13;92782.69;;;23.65;31.98
65376;BME280;51976;47.332;9.404;2023-10-13T11:12:08;92779.00;;;23.80;31.29
65376;BME280;51976;47.332;9.404;2023-10-13T11:14:43;92776.66;;;23.79;30.80
65376;BME280;51976;47.332;9.404;2023-10-13T11:17:22;92765.81;;;23.89;31.45
65376;BME280;51976;47.332;9.404;2023-10-13T11:20:10;92759.44;;;23.85;31.08
65376;BME280;51976;47.332;9.404;2023-10-13T11:22:41;92752.19;;;23.74;29.67
65376;BME280;51976;47.332;9.404;2023-10-13T11:25:20;92761.97;;;23.71;29.73
65376;BME280;51976;47.332;9.404;2023-10-13T11:27:48;92749.59;;;23.84;30.14
65376;BME280;51976;47.332;9.404;2023-10-13T11:30:29;92746.16;;;23.68;30.11
65376;BME280;51976;47.332;9.404;2023-10-13T11:32:58;92745.88;;;23.73;30.40
65376;BME280;51976;47.332;9.404;2023-10-13T11:35:24;92746.09;;;23.87;30.06
65376;BME280;51976;47.332;9.404;2023-10-13T11:37:50;92746.78;;;23.81;30.98
65376;BME280;51976;47.332;9.404;2023-10-13T11:40:29;92740.91;;;23.59;30.76
65376;BME280;51976;47.332;9.404;2023-10-13T11:43:10;92742.56;;;23.64;30.72
65376;BME280;51976;47.332;9.404;2023-10-13T11:45:40;92743.34;;;23.65;30.59
65376;BME280;51976;47.332;9.404;2023-10-13T11:48:20;92739.69;;;23.80;30.73
65376;BME280;51976;47.332;9.404;2023-10-13T11:51:00;92728.66;;;23.80;30.71
65376;BME280;51976;47.332;9.404;2023-10-13T11:53:26;92725.31;;;23.67;30.22
65376;BME280;51976;47.332;9.404;2023-10-13T11:55:54;92729.28;;;23.70;30.55
65376;BME280;51976;47.332;9.404;2023-10-13T11:58:20;92723.72;;;23.89;30.53
65376;BME280;51976;47.332;9.404;2023-10-13T12:00:45;92731.25;;;23.92;30.30
65376;BME280;51976;47.332;9.404;2023-10-13T12:03:18;92715.09;;;23.90;30.54
65376;BME280;51976;47.332;9.404;2023-10-13T12:06:04;92701.53;;;23.78;30.76
65376;BME280;51976;47.332;9.404;2023-10-13T12:08:47;92705.25;;;23.89;30.11
65376;BME280;51976;47.332;9.404;2023-10-13T12:11:17;92706.59;;;23.99;30.11
65376;BME280;51976;47.332;9.404;2023-10-13T12:13:57;92703.78;;;23.95;30.13
65376;BME280;51976;47.332;9.404;2023-10-13T12:16:22;92692.09;;;24.02;30.11
65376;BME280;51976;47.332;9.404;2023-10-13T12:18:48;92699.03;;;24.19;30.02
65376;BME280;51976;47.332;9.404;2023-10-13T12:21:21;92687.59;;;24.17;30.12
65376;BME280;51976;47.332;9.404;2023-10-13T12:23:47;92697.91;;;24.23;30.38
65376;BME280;51976;47.332;9.404;2023-10-13T12:26:12;92683.22;;;24.16;30.49
65376;BME280;51976;47.332;9.404;2023-10-13T12:28:58;92682.56;;;24.22;30.27
65376;BME280;51976;47.332;9.404;2023-10-13T12:31:32;92679.75;;;24.19;30.47
65376;BME280;51976;47.332;9.404;2023-10-13T12:33:58;92677.25;;;24.10;30.61
65376;BME280;51976;47.332;9.404;2023-10-13T12:36:32;92672.66;;;24.18;30.29
65376;BME280;51976;47.332;9.404;2023-10-13T12:39:06;92672.47;;;24.07;29.69
65376;BME280;51976;47.332;9.404;2023-10-13T12:41:48;92665.72;;;24.01;30.24
65376;BME280;51976;47.332;9.404;2023-10-13T12:44:33;92662.59;;;24.03;30.72
65376;BME280;51976;47.332;9.404;2023-10-13T12:47:18;92661.94;;;24.13;30.69
65376;BME280;51976;47.332;9.404;2023-10-13T12:50:04;92661.63;;;24.18;30.32
65376;BME280;51976;47.332;9.404;2023-10-13T12:52:37;92663.72;;;24.24;30.47
65376;BME280;51976;47.332;9.404;2023-10-13T12:55:03;92660.97;;;24.24;30.27
65376;BME280;51976;47.332;9.404;2023-10-13T12:57:32;92651.53;;;24.25;30.27
65376;BME280;51976;47.332;9.404;2023-10-13T12:59:58;92656.13;;;24.18;30.48
65376;BME280;51976;47.332;9.404;2023-10-13T13:02:24;92652.81;;;24.32;31.18
65376;BME280;51976;47.332;9.404;2023-10-13T13:04:51;92649.97;;;24.24;30.34
65376;BME280;51976;47.332;9.404;2023-10-13T13:07:23;92655.28;;;24.14;30.54
65376;BME280;51976;47.332;9.404;2023-10-13T13:09:53;92644.25;;;24.14;30.83
65376;BME280;51976;47.332;9.404;2023-10-13T13:12:24;92648.72;;;24.22;30.89
65376;BME280;51976;47.332;9.404;2023-10-13T13:14:49;92647.31;;;24.09;30.76
65376;BME280;51976;47.332;9.404;2023-10-13T13:17:20;92649.44;;;24.19;30.98
65376;BME280;51976;47.332;9.404;2023-10-13T13:19:45;92645.47;;;24.16;31.32
65376;BME280;51976;47.332;9.404;2023-10-13T13:22:11;92637.09;;;24.09;31.39
65376;BME280;51976;47.332;9.404;2023-10-13T13:24:42;92641.56;;;24.17;31.29
65376;BME280;51976;47.332;9.404;2023-10-13T13:27:13;92635.31;;;24.20;31.53
65376;BME280;51976;47.332;9.404;2023-10-13T13:29:42;92626.09;;;24.09;32.02
65376;BME280;51976;47.332;9.404;2023-10-13T13:32:08;92626.56;;;24.15;31.60
65376;BME280;51976;47.332;9.404;2023-10-13T13:34:44;92623.31;;;24.06;31.42
65376;BME280;51976;47.332;9.404;2023-10-13T13:37:10;92622.91;;;24.07;31.45